Weather reports worldwide

Advertisment
Cairnwell, United Kingdom (3072): temperature & dewpoint: 29.07.2020 16:00:00 - 04.08.2020 16:00:00 (BST)Cairnwell, United Kingdom (3072): wind speed & gusts: 29.07.2020 16:00:00 - 04.08.2020 16:00:00 (BST)Cairnwell, United Kingdom (3072): wind direction: 29.07.2020 16:00:00 - 04.08.2020 16:00:00 (BST)
Date & Time tt [°C] td [°C] ff [km/h] ff [kn] fx [km/h] fx [kn] dd
04.08.2020 16:00:00 9,4 9,4 65 35 76 41 S
04.08.2020 15:00:00 8,4 8,4 55 30 68 37 S
04.08.2020 14:00:00 7,7 7,7 61 33 76 41 S
04.08.2020 13:00:00 7,1 7,1 63 34 80 43 S
04.08.2020 12:00:00 6,7 6,7 63 34 76 41 S
04.08.2020 11:00:00 6,3 6,3 65 35 80 43 S
04.08.2020 10:00:00 5,9 5,9 65 35 76 41 S
04.08.2020 09:00:00 5,4 5,4 70 38 80 43 S
04.08.2020 08:00:00 5,4 5,4 63 34 76 41 S
04.08.2020 07:00:00 5,2 5,2 50 27 63 34 SSW
04.08.2020 06:00:00 4,7 4,7 37 20 46 25 SSW
04.08.2020 05:00:00 4,9 4,9 29 16 - - SSW
04.08.2020 04:00:00 4,6 4,6 26 14 - - SW
04.08.2020 03:00:00 4,9 4,3 34 18 55 30 WSW
04.08.2020 02:00:00 5,7 4,3 37 20 50 27 WSW
04.08.2020 01:00:00 4,9 4,9 26 14 - - WSW
04.08.2020 00:00:00 5,7 4,5 28 15 46 25 WSW
03.08.2020 23:00:00 5,8 4,2 28 15 46 25 W
03.08.2020 22:00:00 5,4 4,8 34 18 - - WSW
03.08.2020 21:00:00 6,6 3,7 29 16 - - W
03.08.2020 20:00:00 6,0 5,2 34 18 46 25 W
03.08.2020 19:00:00 6,7 5,3 28 15 50 27 W
03.08.2020 18:00:00 7,8 4,6 29 16 - - WSW
03.08.2020 17:00:00 7,3 4,3 26 14 55 30 WSW
03.08.2020 16:00:00 7,4 3,8 37 20 54 29 WSW
03.08.2020 15:00:00 6,8 3,4 24 13 - - WNW
03.08.2020 14:00:00 7,2 2,6 28 15 - - W
03.08.2020 13:00:00 6,1 2,6 21 11 - - W
03.08.2020 12:00:00 6,3 2,7 22 12 - - WSW
03.08.2020 11:00:00 5,2 2,7 28 15 - - W
03.08.2020 10:00:00 4,9 2,1 31 17 - - W
03.08.2020 09:00:00 4,8 1,5 24 13 - - W
03.08.2020 08:00:00 4,2 2,0 26 14 - - W
03.08.2020 07:00:00 3,5 2,1 24 13 - - WNW
03.08.2020 06:00:00 3,7 2,7 39 21 46 25 WNW
03.08.2020 05:00:00 3,8 2,7 39 21 52 28 WNW
03.08.2020 04:00:00 3,6 2,8 42 23 54 29 WNW
03.08.2020 03:00:00 4,2 2,8 46 25 54 29 WNW
03.08.2020 02:00:00 4,1 2,9 22 12 48 26 W
03.08.2020 01:00:00 4,4 3,2 39 21 52 28 WNW
03.08.2020 00:00:00 4,9 3,1 37 20 48 26 WNW
02.08.2020 23:00:00 5,4 2,8 41 22 54 29 WNW
02.08.2020 22:00:00 5,7 3,0 42 23 54 29 WNW
02.08.2020 21:00:00 6,3 4,1 37 20 46 25 WNW
02.08.2020 20:00:00 6,9 3,3 34 18 48 26 WNW
02.08.2020 19:00:00 6,9 3,9 42 23 70 38 WNW
02.08.2020 18:00:00 8,0 3,1 29 16 48 26 W
02.08.2020 17:00:00 7,6 4,6 35 19 50 27 W
02.08.2020 16:00:00 7,7 4,1 39 21 54 29 W
02.08.2020 15:00:00 8,4 3,9 28 15 - - W
02.08.2020 14:00:00 8,7 3,0 26 14 50 27 W
02.08.2020 13:00:00 6,4 5,3 26 14 - - W
02.08.2020 12:00:00 7,5 4,5 26 14 - - W
02.08.2020 11:00:00 7,3 3,6 26 14 50 27 WNW
02.08.2020 10:00:00 5,8 4,1 35 19 57 31 W
02.08.2020 09:00:00 6,3 4,9 18 10 - - W
02.08.2020 08:00:00 6,0 4,4 16 9 - - WNW
02.08.2020 07:00:00 5,9 5,2 21 11 - - W
02.08.2020 06:00:00 5,7 5,7 24 13 - - WNW
02.08.2020 05:00:00 5,7 5,7 31 17 - - WNW
02.08.2020 04:00:00 5,8 5,5 31 17 - - W
02.08.2020 03:00:00 6,2 5,7 16 9 - - WSW
02.08.2020 02:00:00 6,5 5,4 8 4 - - WSW
02.08.2020 01:00:00 6,8 5,3 5 3 - - SW
02.08.2020 00:00:00 6,9 5,0 15 8 - - WNW
01.08.2020 23:00:00 7,7 5,2 9 5 - - W
01.08.2020 22:00:00 7,5 6,0 8 4 - - SSW
01.08.2020 21:00:00 8,0 5,9 15 8 - - W
01.08.2020 20:00:00 8,5 5,2 26 14 - - W
01.08.2020 19:00:00 8,9 5,2 28 15 - - W
01.08.2020 18:00:00 10,5 4,9 18 10 - - W
01.08.2020 17:00:00 10,5 4,9 21 11 - - W
01.08.2020 16:00:00 10,6 3,2 28 15 - - W
01.08.2020 15:00:00 10,7 3,7 24 13 - - W
01.08.2020 14:00:00 10,6 4,2 16 9 - - WNW
01.08.2020 13:00:00 10,4 4,1 24 13 - - WNW
01.08.2020 12:00:00 9,2 4,8 18 10 - - W
01.08.2020 11:00:00 8,6 6,0 28 15 - - WNW
01.08.2020 10:00:00 8,1 5,9 28 15 - - WNW
01.08.2020 09:00:00 8,0 7,4 37 20 46 25 WNW
01.08.2020 08:00:00 8,8 7,6 11 6 - - S
01.08.2020 07:00:00 9,3 9,3 21 11 - - W
01.08.2020 06:00:00 9,5 9,5 9 5 52 28 SSW
01.08.2020 05:00:00 10,1 9,3 29 16 - - W
01.08.2020 04:00:00 10,3 9,3 41 22 50 27 W
01.08.2020 03:00:00 11,3 10,3 29 16 48 26 W
01.08.2020 02:00:00 11,6 11,6 34 18 48 26 W
01.08.2020 01:00:00 12,1 12,1 22 12 - - WSW
01.08.2020 00:00:00 12,4 12,4 31 17 50 27 SSW
31.07.2020 23:00:00 12,8 12,8 39 21 46 25 SSW
31.07.2020 22:00:00 13,2 12,7 35 19 55 30 SSW
31.07.2020 21:00:00 14,7 11,6 44 24 67 36 S
31.07.2020 20:00:00 15,4 12,6 42 23 57 31 S
31.07.2020 19:00:00 15,1 11,7 35 19 54 29 SSE
31.07.2020 18:00:00 15,4 11,7 39 21 61 33 SSE
31.07.2020 17:00:00 16,1 11,6 46 25 72 39 SSE
31.07.2020 16:00:00 17,3 10,9 46 25 68 37 SSE
31.07.2020 15:00:00 16,2 9,4 46 25 57 31 SE
31.07.2020 14:00:00 15,2 9,5 29 16 52 28 S
31.07.2020 13:00:00 15,1 7,5 44 24 57 31 SSE
31.07.2020 12:00:00 15,0 7,4 42 23 55 30 S
31.07.2020 11:00:00 14,1 8,5 31 17 46 25 S
31.07.2020 10:00:00 13,2 9,0 31 17 50 27 S
31.07.2020 09:00:00 12,1 10,1 29 16 - - S
31.07.2020 08:00:00 11,6 10,2 31 17 54 29 S
31.07.2020 07:00:00 11,3 10,5 37 20 48 26 S
31.07.2020 06:00:00 10,9 10,9 26 14 - - S
31.07.2020 05:00:00 10,6 10,6 29 16 46 25 S
31.07.2020 04:00:00 10,5 10,4 34 18 52 28 S
31.07.2020 03:00:00 10,3 9,5 35 19 46 25 S
31.07.2020 02:00:00 9,3 9,0 34 18 52 28 S
31.07.2020 01:00:00 9,7 8,9 34 18 50 27 S
31.07.2020 00:00:00 9,0 9,0 44 24 50 27 S
30.07.2020 23:00:00 8,9 8,9 34 18 54 29 S
30.07.2020 22:00:00 9,9 9,9 35 19 - - S
30.07.2020 21:00:00 9,9 9,9 31 17 48 26 S
30.07.2020 20:00:00 9,7 9,7 31 17 - - S
30.07.2020 19:00:00 9,3 9,3 29 16 46 25 S
30.07.2020 18:00:00 9,3 9,3 35 19 46 25 S
30.07.2020 17:00:00 8,8 8,8 39 21 48 26 S
30.07.2020 16:00:00 8,4 8,3 37 20 50 27 S
30.07.2020 15:00:00 8,1 8,0 29 16 - - S
30.07.2020 14:00:00 7,6 7,1 31 17 - - S
30.07.2020 13:00:00 7,1 6,8 26 14 - - S
30.07.2020 12:00:00 6,4 6,2 31 17 - - S
30.07.2020 11:00:00 6,2 5,9 26 14 46 25 S
30.07.2020 10:00:00 5,6 5,5 34 18 52 28 SSE
30.07.2020 09:00:00 5,5 5,5 28 15 - - SSE
30.07.2020 08:00:00 5,4 5,4 22 12 - - SSE
30.07.2020 07:00:00 5,4 5,4 28 15 - - SSE
30.07.2020 06:00:00 5,3 5,3 26 14 - - S
30.07.2020 05:00:00 4,8 4,3 26 14 - - SSE
30.07.2020 04:00:00 6,0 3,8 24 13 - - S
30.07.2020 03:00:00 6,2 4,0 18 10 - - S
30.07.2020 02:00:00 6,1 5,3 4 2 - - SSE
30.07.2020 01:00:00 5,9 4,3 5 3 - - NW
30.07.2020 00:00:00 6,0 3,6 15 8 - - WNW
29.07.2020 23:00:00 6,2 3,9 15 8 - - WNW
29.07.2020 22:00:00 6,4 4,2 16 9 - - NW
29.07.2020 21:00:00 6,7 3,6 21 11 - - NW
29.07.2020 20:00:00 7,1 4,1 26 14 - - WNW
29.07.2020 19:00:00 7,3 4,4 29 16 - - WNW
29.07.2020 18:00:00 7,9 3,7 29 16 52 28 WNW
29.07.2020 17:00:00 7,4 4,1 41 22 57 31 WNW
29.07.2020 16:00:00 7,5 3,8 41 22 55 30 WNW

tt = temperature
td = dewpoint
ff = wind speed
fx = gusts
dd = wind direction

Next stations